Time;durP1;ratioP1;P1;durP2;ratioP2;P2;SDS_P1;SDS_P2;PMS_P1;PMS_P2;Temp;Humidity;BMP_temperature;BMP_pressure;BME280_temperature;BME280_humidity;BME280_pressure;Samples;Min_cycle;Max_cycle;Signal;HPM_P1;HPM_P2
2022/02/28 00:00:52;;;;;;;19.00;10.27;;;8.20;77.00;;;;;;4994241;28;20064;-74
2022/02/28 00:03:19;;;;;;;20.40;9.90;;;8.20;77.00;;;;;;4979623;28;20072;-74
2022/02/28 00:05:45;;;;;;;26.20;10.73;;;8.10;76.90;;;;;;4979506;28;20031;-74
2022/02/28 00:08:10;;;;;;;14.75;9.23;;;8.10;76.70;;;;;;4979532;28;20110;-74
2022/02/28 00:10:36;;;;;;;16.20;8.43;;;8.10;76.70;;;;;;4979425;28;20562;-74
2022/02/28 00:13:02;;;;;;;16.92;9.73;;;8.10;76.60;;;;;;4994644;28;20038;-74
2022/02/28 00:15:28;;;;;;;18.13;9.43;;;8.10;76.20;;;;;;4993744;28;20037;-74
2022/02/28 00:17:54;;;;;;;21.00;10.73;;;8.10;75.60;;;;;;4994208;28;20658;-74
2022/02/28 00:20:19;;;;;;;17.75;9.27;;;8.10;75.40;;;;;;5010569;28;20076;-74
2022/02/28 00:22:45;;;;;;;16.90;8.50;;;8.00;75.10;;;;;;4998638;28;20095;-74
2022/02/28 00:25:11;;;;;;;16.65;9.40;;;8.00;74.80;;;;;;4998642;28;20030;-74
2022/02/28 00:27:37;;;;;;;9.65;7.85;;;7.90;74.60;;;;;;4995027;28;20265;-74
2022/02/28 00:30:06;;;;;;;10.63;6.88;;;7.80;74.40;;;;;;4994076;28;20023;-74
2022/02/28 00:32:32;;;;;;;14.60;8.60;;;7.80;74.20;;;;;;4994306;28;20443;-74
2022/02/28 00:34:57;;;;;;;13.00;9.07;;;7.80;74.00;;;;;;5000667;28;20034;-74
2022/02/28 00:37:23;;;;;;;16.33;9.45;;;7.80;73.70;;;;;;4993574;28;20118;-74
2022/02/28 00:39:49;;;;;;;13.10;8.65;;;7.80;73.70;;;;;;4978891;28;20035;-74
2022/02/28 00:42:15;;;;;;;16.73;8.85;;;7.70;73.40;;;;;;4993655;28;20082;-74
2022/02/28 00:44:41;;;;;;;14.48;7.70;;;7.70;73.10;;;;;;4978898;28;20030;-74
2022/02/28 00:47:07;;;;;;;11.95;7.35;;;7.80;72.90;;;;;;4978599;28;20084;-74
2022/02/28 00:49:33;;;;;;;12.27;7.75;;;7.80;72.80;;;;;;4994067;28;20053;-74
2022/02/28 00:51:58;;;;;;;14.43;7.75;;;7.80;72.80;;;;;;4978806;28;20038;-74
2022/02/28 00:54:25;;;;;;;14.32;7.57;;;8.00;72.50;;;;;;4992048;28;20030;-74
2022/02/28 00:56:51;;;;;;;11.90;7.80;;;8.10;72.00;;;;;;4978160;28;20027;-74
2022/02/28 00:59:17;;;;;;;25.45;11.82;;;8.10;71.30;;;;;;4978625;28;20113;-74
2022/02/28 01:01:42;;;;;;;15.63;8.25;;;8.20;71.10;;;;;;4988138;28;20054;-74
2022/02/28 01:04:08;;;;;;;15.02;7.28;;;8.20;70.90;;;;;;4978232;28;20393;-74
2022/02/28 01:06:34;;;;;;;14.98;8.35;;;8.20;71.00;;;;;;4993793;28;20027;-74
2022/02/28 01:09:00;;;;;;;17.90;8.48;;;8.20;71.00;;;;;;4993453;28;20031;-74
2022/02/28 01:11:26;;;;;;;18.92;8.38;;;8.20;70.70;;;;;;4978192;28;20477;-73
2022/02/28 01:13:52;;;;;;;16.77;8.90;;;8.20;70.60;;;;;;4981263;28;20023;-74
2022/02/28 01:16:18;;;;;;;16.48;8.60;;;8.10;70.40;;;;;;4993307;28;20073;-74
2022/02/28 01:18:44;;;;;;;10.13;7.22;;;8.10;70.60;;;;;;4987505;28;20069;-74
2022/02/28 01:21:10;;;;;;;13.82;8.27;;;8.10;70.70;;;;;;4996525;28;20037;-74
2022/02/28 01:23:35;;;;;;;13.38;7.88;;;8.10;70.50;;;;;;4997720;28;20024;-74
2022/02/28 01:26:02;;;;;;;13.60;8.13;;;8.10;70.40;;;;;;5012459;28;20766;-74
2022/02/28 01:28:27;;;;;;;12.63;7.93;;;8.20;70.40;;;;;;4992585;28;20054;-73
2022/02/28 01:30:53;;;;;;;11.85;7.60;;;8.00;70.10;;;;;;4978387;28;20054;-74
2022/02/28 01:33:19;;;;;;;14.32;7.53;;;8.00;70.40;;;;;;4992860;28;20022;-74
2022/02/28 01:35:44;;;;;;;14.57;8.88;;;8.00;70.50;;;;;;4976783;28;20027;-74
2022/02/28 01:38:11;;;;;;;11.88;7.57;;;8.00;70.70;;;;;;4977872;28;20066;-74
2022/02/28 01:40:36;;;;;;;14.98;8.10;;;8.00;70.60;;;;;;4977755;28;20054;-74
2022/02/28 01:43:03;;;;;;;13.48;7.30;;;8.00;70.60;;;;;;4977929;28;20023;-74
2022/02/28 01:45:29;;;;;;;13.77;7.57;;;8.00;70.40;;;;;;4977836;28;20062;-74
2022/02/28 01:47:57;;;;;;;11.93;7.80;;;8.00;70.60;;;;;;4977618;28;20034;-74
2022/02/28 01:50:24;;;;;;;15.60;8.57;;;8.00;70.50;;;;;;4977915;28;20033;-74
2022/02/28 01:52:49;;;;;;;15.13;8.38;;;8.00;70.50;;;;;;4977673;28;20362;-74
2022/02/28 01:55:18;;;;;;;13.48;7.97;;;8.00;70.40;;;;;;4977847;28;20031;-74
2022/02/28 01:57:44;;;;;;;10.90;7.45;;;8.00;70.30;;;;;;4991429;28;20050;-74
2022/02/28 02:00:13;;;;;;;11.27;7.22;;;8.00;70.50;;;;;;4977542;28;20496;-74
2022/02/28 02:02:41;;;;;;;13.50;7.78;;;8.00;70.40;;;;;;4991252;28;20490;-74
2022/02/28 02:05:07;;;;;;;10.75;7.15;;;7.90;70.60;;;;;;4977551;28;20381;-74
2022/02/28 02:07:33;;;;;;;13.90;7.53;;;8.00;70.80;;;;;;4977307;28;20051;-74
2022/02/28 02:10:06;;;;;;;8.93;6.20;;;8.00;70.70;;;;;;4991393;28;20039;-74
2022/02/28 02:12:32;;;;;;;12.13;7.10;;;7.90;70.60;;;;;;4977163;28;20046;-75
2022/02/28 02:14:59;;;;;;;13.13;7.40;;;7.90;70.90;;;;;;4977120;28;20031;-74
2022/02/28 02:17:25;;;;;;;10.10;8.07;;;8.00;71.00;;;;;;4992496;28;20058;-74
2022/02/28 02:19:54;;;;;;;15.07;8.23;;;8.00;71.10;;;;;;4992836;28;20061;-74
2022/02/28 02:22:21;;;;;;;11.50;7.82;;;8.00;71.20;;;;;;4993479;28;20038;-74
2022/02/28 02:24:51;;;;;;;14.02;8.35;;;8.00;71.00;;;;;;4968711;28;20126;-74
2022/02/28 02:27:18;;;;;;;10.67;8.07;;;8.10;71.00;;;;;;4977204;28;20033;-74
2022/02/28 02:29:44;;;;;;;14.88;8.68;;;8.00;71.30;;;;;;4977111;28;20366;-74
2022/02/28 02:32:14;;;;;;;14.52;7.90;;;8.00;71.40;;;;;;4991266;28;20026;-74
2022/02/28 02:34:40;;;;;;;;;;;8.10;71.50;;;;;;4977401;28;20038;-73
2022/02/28 02:37:06;;;;;;;17.58;8.23;;;8.20;71.90;;;;;;4977115;28;20372;-74
2022/02/28 02:39:32;;;;;;;15.75;8.32;;;8.20;72.20;;;;;;4989172;28;20042;-74
2022/02/28 02:41:57;;;;;;;22.80;10.07;;;8.20;72.70;;;;;;4976565;28;20059;-74
2022/02/28 02:44:33;;;;;;;17.88;8.90;;;8.20;74.20;;;;;;4976581;28;20031;-74
2022/02/28 02:47:00;;;;;;;15.00;8.88;;;8.10;75.20;;;;;;4991738;28;20037;-74
2022/02/28 02:49:27;;;;;;;21.60;9.27;;;8.10;76.30;;;;;;4976890;28;20027;-74
2022/02/28 02:51:52;;;;;;;22.20;9.75;;;8.00;77.10;;;;;;4976715;28;20711;-74
2022/02/28 02:54:18;;;;;;;20.60;10.02;;;8.00;77.40;;;;;;4990273;28;20034;-74
2022/02/28 02:56:44;;;;;;;22.65;10.00;;;8.10;77.40;;;;;;4991400;28;20070;-74
2022/02/28 02:59:09;;;;;;;29.90;10.73;;;8.00;78.00;;;;;;4976343;28;20026;-73
2022/02/28 03:01:35;;;;;;;28.95;11.88;;;8.00;78.20;;;;;;4991468;28;20122;-74
2022/02/28 03:04:01;;;;;;;28.52;11.20;;;8.00;79.30;;;;;;4976416;28;20038;-74
2022/02/28 03:06:27;;;;;;;28.35;11.13;;;7.90;80.30;;;;;;4976676;28;20027;-74
2022/02/28 03:08:53;;;;;;;27.85;12.40;;;7.90;80.70;;;;;;4976237;28;20042;-74
2022/02/28 03:11:19;;;;;;;24.90;11.70;;;8.00;81.30;;;;;;4976273;28;20027;-74
2022/02/28 03:13:45;;;;;;;27.60;12.65;;;7.90;82.20;;;;;;4976338;28;20038;-74
2022/02/28 03:16:11;;;;;;;27.42;13.93;;;7.90;83.40;;;;;;4976096;28;20041;-74
2022/02/28 03:18:36;;;;;;;33.25;13.48;;;7.80;84.30;;;;;;4986479;28;20056;-74
2022/02/28 03:21:02;;;;;;;32.22;13.57;;;7.90;84.40;;;;;;4987908;28;20027;-74
2022/02/28 03:23:28;;;;;;;38.55;14.18;;;7.80;84.90;;;;;;4994317;28;20085;-74
2022/02/28 03:25:54;;;;;;;32.70;14.82;;;7.80;85.00;;;;;;4995004;28;20018;-74
2022/02/28 03:28:20;;;;;;;27.10;12.38;;;7.90;85.00;;;;;;4975931;28;20457;-74
2022/02/28 03:30:46;;;;;;;31.08;14.15;;;7.90;85.40;;;;;;4991365;28;20023;-74
2022/02/28 03:33:12;;;;;;;29.10;13.10;;;7.90;85.20;;;;;;4974807;28;20023;-74
2022/02/28 03:35:38;;;;;;;26.30;13.07;;;8.00;84.60;;;;;;4975636;28;20030;-74
2022/02/28 03:38:04;;;;;;;30.08;12.43;;;8.00;84.40;;;;;;4991242;28;20125;-74
2022/02/28 03:40:31;;;;;;;20.88;11.75;;;8.00;85.10;;;;;;4975654;28;20078;-74
2022/02/28 03:42:57;;;;;;;27.75;12.27;;;8.10;84.70;;;;;;4990982;28;20035;-74
2022/02/28 03:45:24;;;;;;;23.35;12.00;;;8.20;84.00;;;;;;4976057;28;20027;-74
2022/02/28 03:47:50;;;;;;;33.70;12.43;;;8.20;84.30;;;;;;4991046;28;20037;-74
2022/02/28 03:50:16;;;;;;;26.13;12.68;;;8.20;84.00;;;;;;4975780;28;20033;-74
2022/02/28 03:52:42;;;;;;;23.77;11.13;;;8.20;84.40;;;;;;4975803;28;20070;-74
2022/02/28 03:55:09;;;;;;;23.55;11.27;;;8.20;84.20;;;;;;4975630;28;20043;-74
2022/02/28 03:57:34;;;;;;;28.13;12.70;;;8.20;84.60;;;;;;4990677;28;20035;-74
2022/02/28 04:00:00;;;;;;;18.92;10.15;;;8.20;84.90;;;;;;4976071;28;20023;-74
2022/02/28 04:02:26;;;;;;;24.30;10.70;;;8.10;85.00;;;;;;4975837;28;20039;-74
2022/02/28 04:04:52;;;;;;;23.85;11.25;;;8.10;85.20;;;;;;4975885;28;20085;-74
2022/02/28 04:07:17;;;;;;;23.60;10.90;;;8.20;85.70;;;;;;4975968;28;20026;-74
2022/02/28 04:09:43;;;;;;;20.60;10.98;;;8.10;85.50;;;;;;4990823;28;20126;-74
2022/02/28 04:12:10;;;;;;;26.67;12.02;;;8.20;85.70;;;;;;4975337;28;20027;-74
2022/02/28 04:14:36;;;;;;;21.98;10.77;;;8.20;86.20;;;;;;4990677;28;20031;-74
2022/02/28 04:17:02;;;;;;;25.88;10.60;;;8.10;86.50;;;;;;4975799;28;20039;-74
2022/02/28 04:19:28;;;;;;;23.52;12.57;;;8.00;87.10;;;;;;5015603;28;20030;-74
2022/02/28 04:21:54;;;;;;;31.50;12.95;;;7.90;87.40;;;;;;5000126;28;20030;-74
2022/02/28 04:24:19;;;;;;;26.67;12.45;;;7.90;87.60;;;;;;4996443;28;20054;-74
2022/02/28 04:26:45;;;;;;;31.73;13.35;;;7.80;87.70;;;;;;4990026;28;20035;-74
2022/02/28 04:29:12;;;;;;;40.55;14.88;;;7.80;87.90;;;;;;4975826;28;20030;-73
2022/02/28 04:31:39;;;;;;;26.38;13.25;;;7.80;88.00;;;;;;4975797;28;20034;-74
2022/02/28 04:34:05;;;;;;;28.63;13.60;;;7.80;87.80;;;;;;4979239;28;20497;-74
2022/02/28 04:36:31;;;;;;;29.40;11.88;;;7.80;88.10;;;;;;4992860;28;20117;-74
2022/02/28 04:38:59;;;;;;;35.80;13.90;;;7.80;87.90;;;;;;4979182;28;20023;-74
2022/02/28 04:41:25;;;;;;;32.15;13.45;;;7.70;88.10;;;;;;4978787;28;20047;-75
2022/02/28 04:43:51;;;;;;;33.35;14.23;;;7.80;88.30;;;;;;4993786;28;20026;-74
2022/02/28 04:46:17;;;;;;;33.33;15.43;;;7.70;88.50;;;;;;4978882;28;20053;-74
2022/02/28 04:48:43;;;;;;;36.80;14.75;;;7.60;88.80;;;;;;4979042;28;20544;-74
2022/02/28 04:51:09;;;;;;;35.40;14.50;;;7.60;88.90;;;;;;4978475;28;20038;-74
2022/02/28 04:53:34;;;;;;;32.25;15.93;;;7.50;88.80;;;;;;4978910;28;20038;-74
2022/02/28 04:56:00;;;;;;;34.10;13.98;;;7.50;89.30;;;;;;4978495;28;21090;-74
2022/02/28 04:58:26;;;;;;;35.92;14.15;;;7.50;89.50;;;;;;4993774;28;20123;-74
2022/02/28 05:00:52;;;;;;;35.85;14.45;;;7.50;89.90;;;;;;4978789;28;20022;-74
2022/02/28 05:03:18;;;;;;;37.55;16.58;;;7.60;89.80;;;;;;4978623;28;20050;-74
2022/02/28 05:05:43;;;;;;;41.72;15.65;;;7.70;89.20;;;;;;4992887;28;20045;-74
2022/02/28 05:08:09;;;;;;;43.50;16.02;;;7.70;89.10;;;;;;4978666;28;20118;-74
2022/02/28 05:10:35;;;;;;;31.83;14.35;;;7.70;89.70;;;;;;4978190;28;20035;-74
2022/02/28 05:13:01;;;;;;;47.05;15.27;;;7.70;89.20;;;;;;4986365;28;20046;-74
2022/02/28 05:15:26;;;;;;;37.67;16.15;;;7.80;88.80;;;;;;4994820;28;20034;-74
2022/02/28 05:17:52;;;;;;;36.00;16.15;;;7.70;88.80;;;;;;5013000;28;20427;-74
2022/02/28 05:20:20;;;;;;;32.90;15.77;;;7.70;89.00;;;;;;5031607;28;20511;-74
2022/02/28 05:22:46;;;;;;;37.70;14.68;;;7.80;88.90;;;;;;4985483;28;20030;-74
2022/02/28 05:25:12;;;;;;;33.28;15.77;;;7.70;88.80;;;;;;4997702;28;20041;-75
2022/02/28 05:27:44;;;;;;;42.90;15.55;;;7.70;89.20;;;;;;4997588;28;20023;-74
2022/02/28 05:30:11;;;;;;;26.77;12.88;;;7.70;89.00;;;;;;4989734;28;20033;-74
2022/02/28 05:32:38;;;;;;;34.80;14.57;;;7.60;89.30;;;;;;4978101;28;20485;-74
2022/02/28 05:35:08;;;;;;;32.97;14.73;;;7.60;89.70;;;;;;4993148;28;20550;-74
2022/02/28 05:37:33;;;;;;;36.88;14.68;;;7.50;90.00;;;;;;4992849;28;20091;-74
2022/02/28 05:39:59;;;;;;;35.35;14.57;;;7.60;89.90;;;;;;4977560;28;20489;-75
2022/02/28 05:42:25;;;;;;;37.63;15.68;;;7.60;89.60;;;;;;4977935;28;20121;-74
2022/02/28 05:44:50;;;;;;;42.40;15.27;;;7.70;89.80;;;;;;4977425;28;20039;-74
2022/02/28 05:47:16;;;;;;;38.30;15.98;;;7.60;89.80;;;;;;4977920;28;20037;-74
2022/02/28 05:49:42;;;;;;;31.92;13.68;;;7.60;90.00;;;;;;4980554;28;20366;-77
2022/02/28 06:16:02;;;;;;;48.97;18.23;;;6.30;93.20;;;;;;5071840;28;20405;-73
2022/02/28 06:18:27;;;;;;;42.75;17.13;;;6.40;93.10;;;;;;5076353;28;20498;-72
2022/02/28 06:20:53;;;;;;;45.13;18.08;;;6.60;92.20;;;;;;5071738;28;20031;-74
2022/02/28 06:23:19;;;;;;;56.08;19.27;;;6.80;91.40;;;;;;5067312;28;20037;-73
2022/02/28 06:25:45;;;;;;;58.42;20.33;;;7.00;91.00;;;;;;5069817;28;20027;-75
2022/02/28 06:28:20;;;;;;;52.28;21.00;;;7.20;90.30;;;;;;5071087;28;20449;-74
2022/02/28 06:30:45;;;;;;;59.88;19.90;;;7.30;89.30;;;;;;5067437;28;20017;-74
2022/02/28 06:33:11;;;;;;;51.90;16.42;;;7.30;88.70;;;;;;5065390;28;20486;-75
2022/02/28 06:35:37;;;;;;;49.38;19.42;;;7.30;87.90;;;;;;5071392;28;20029;-74
2022/02/28 06:38:11;;;;;;;71.45;19.48;;;7.30;87.60;;;;;;5063184;28;20446;-75
2022/02/28 06:40:38;;;;;;;59.75;19.25;;;7.30;87.60;;;;;;5051422;28;20049;-75
2022/02/28 06:43:04;;;;;;;54.30;19.30;;;7.50;87.70;;;;;;5051300;28;20025;-74
2022/02/28 06:45:30;;;;;;;56.05;20.33;;;7.50;87.00;;;;;;5051668;28;20022;-74
2022/02/28 06:47:55;;;;;;;51.13;18.90;;;7.40;87.00;;;;;;5051750;28;20419;-74
2022/02/28 06:50:21;;;;;;;58.15;19.77;;;7.50;86.90;;;;;;5050503;28;20033;-74
2022/02/28 06:52:47;;;;;;;60.67;20.27;;;7.50;87.00;;;;;;5050534;28;20029;-74
2022/02/28 06:55:13;;;;;;;69.20;21.33;;;7.50;86.80;;;;;;5050395;28;20023;-74
2022/02/28 06:57:39;;;;;;;59.92;19.65;;;7.50;86.70;;;;;;5050661;28;20029;-75
2022/02/28 07:00:05;;;;;;;53.17;17.80;;;7.50;86.40;;;;;;5050978;28;20025;-75
2022/02/28 07:02:30;;;;;;;65.28;21.77;;;7.50;86.70;;;;;;5049781;28;20091;-74
2022/02/28 07:04:56;;;;;;;58.10;21.40;;;7.50;86.80;;;;;;5051167;28;20021;-75
2022/02/28 07:07:22;;;;;;;51.05;20.73;;;7.40;86.90;;;;;;5051629;28;20033;-75
2022/02/28 07:09:48;;;;;;;52.33;18.58;;;7.40;86.90;;;;;;5051501;28;20067;-75
2022/02/28 07:12:14;;;;;;;39.00;14.57;;;7.50;87.00;;;;;;5061659;28;20028;-74
2022/02/28 07:14:41;;;;;;;47.47;17.80;;;7.50;87.00;;;;;;5071280;28;20055;-75
2022/02/28 07:17:07;;;;;;;45.40;17.50;;;7.40;87.30;;;;;;5053533;28;20032;-75
2022/02/28 07:19:33;;;;;;;51.22;17.75;;;7.50;87.10;;;;;;5077377;28;20095;-75
2022/02/28 07:21:59;;;;;;;41.42;16.08;;;7.60;87.10;;;;;;5091791;28;20086;-75
2022/02/28 07:24:25;;;;;;;40.40;14.93;;;7.50;86.40;;;;;;5067811;28;20025;-76
2022/02/28 07:26:50;;;;;;;46.20;16.23;;;7.50;87.10;;;;;;5038867;28;20041;-76
2022/02/28 07:29:16;;;;;;;46.15;17.48;;;7.40;87.50;;;;;;5037250;28;20026;-76
2022/02/28 07:31:42;;;;;;;42.20;16.27;;;7.40;87.30;;;;;;5049931;28;20032;-76
2022/02/28 07:34:09;;;;;;;42.80;14.63;;;7.40;87.50;;;;;;5056025;28;20052;-76
2022/02/28 07:36:37;;;;;;;49.60;16.95;;;7.30;87.40;;;;;;5053211;28;20018;-76
2022/02/28 07:39:04;;;;;;;36.60;12.13;;;7.30;87.80;;;;;;5052914;28;20114;-76
2022/02/28 07:41:30;;;;;;;38.92;15.55;;;7.20;88.10;;;;;;5037328;28;20097;-76
2022/02/28 07:43:55;;;;;;;35.13;11.95;;;7.20;88.30;;;;;;5037826;28;20531;-76
2022/02/28 07:46:21;;;;;;;46.20;14.93;;;7.20;88.30;;;;;;5057185;28;20753;-76
2022/02/28 07:48:48;;;;;;;59.75;16.55;;;7.10;88.50;;;;;;5057632;28;20048;-76
2022/02/28 07:51:14;;;;;;;49.97;14.90;;;7.00;88.80;;;;;;5056981;28;20052;-76
2022/02/28 07:53:40;;;;;;;38.58;13.73;;;7.00;89.20;;;;;;5052348;28;20038;-76
2022/02/28 07:56:06;;;;;;;38.45;14.73;;;7.10;89.30;;;;;;5037277;28;20022;-76
2022/02/28 07:58:32;;;;;;;46.42;16.17;;;7.10;89.20;;;;;;5052259;28;20026;-76
2022/02/28 08:00:58;;;;;;;53.63;20.10;;;7.20;88.90;;;;;;5037208;28;20022;-76
2022/02/28 08:03:24;;;;;;;53.42;17.60;;;7.20;89.40;;;;;;5036585;28;20032;-76
2022/02/28 08:05:49;;;;;;;60.70;20.75;;;7.30;88.70;;;;;;5037117;28;20036;-76
2022/02/28 08:08:15;;;;;;;58.45;21.38;;;7.30;88.60;;;;;;5037002;28;20021;-76
2022/02/28 08:10:41;;;;;;;44.65;18.80;;;7.30;88.40;;;;;;5039357;28;20025;-75
2022/02/28 08:13:07;;;;;;;52.33;18.90;;;7.40;88.40;;;;;;5056922;28;20028;-76
2022/02/28 08:15:32;;;;;;;42.25;14.35;;;7.50;88.00;;;;;;5055461;28;20049;-76
2022/02/28 08:17:58;;;;;;;54.08;17.48;;;7.40;87.00;;;;;;5040649;28;20092;-76
2022/02/28 08:20:24;;;;;;;50.70;16.23;;;7.30;87.10;;;;;;5036925;28;20422;-76
2022/02/28 08:22:50;;;;;;;42.50;16.98;;;7.40;87.10;;;;;;5041582;28;20025;-76
2022/02/28 08:25:16;;;;;;;37.22;15.50;;;7.50;86.90;;;;;;5052496;28;20025;-76
2022/02/28 08:27:41;;;;;;;47.58;16.60;;;7.60;86.40;;;;;;5036531;28;20056;-76
2022/02/28 08:30:07;;;;;;;35.60;12.88;;;7.70;86.20;;;;;;5036463;28;20048;-76
2022/02/28 08:32:33;;;;;;;33.75;13.23;;;7.70;85.60;;;;;;5036490;28;20507;-76
2022/02/28 08:34:59;;;;;;;44.40;15.23;;;7.70;85.80;;;;;;5036442;28;20124;-76
2022/02/28 08:37:25;;;;;;;49.35;17.73;;;7.70;86.10;;;;;;5035336;28;20065;-76
2022/02/28 08:39:50;;;;;;;43.42;16.77;;;7.70;86.00;;;;;;5036062;28;20149;-76
2022/02/28 08:42:16;;;;;;;38.10;16.48;;;7.70;85.90;;;;;;5035091;28;20039;-76
2022/02/28 08:44:43;;;;;;;38.30;15.13;;;7.70;86.20;;;;;;5036020;28;20442;-76
2022/02/28 08:47:09;;;;;;;35.65;14.73;;;7.80;85.90;;;;;;5035898;28;20044;-76
2022/02/28 08:49:35;;;;;;;37.50;13.73;;;7.80;85.10;;;;;;5035179;28;20041;-76
2022/02/28 08:52:02;;;;;;;44.83;16.85;;;7.70;85.50;;;;;;5035925;28;20472;-76
2022/02/28 08:54:28;;;;;;;39.78;15.70;;;7.70;85.70;;;;;;5034498;28;20065;-76
2022/02/28 08:56:54;;;;;;;37.08;13.70;;;7.80;85.90;;;;;;5036028;28;20024;-76
2022/02/28 08:59:19;;;;;;;38.40;13.38;;;7.80;85.80;;;;;;5036029;28;20404;-76
2022/02/28 09:01:45;;;;;;;37.20;15.23;;;7.70;86.20;;;;;;5036027;28;20079;-76
2022/02/28 09:04:11;;;;;;;50.05;17.27;;;7.60;86.80;;;;;;5037733;28;20025;-76
2022/02/28 09:06:36;;;;;;;37.67;15.63;;;7.70;86.90;;;;;;5055976;28;20021;-76
2022/02/28 09:09:02;;;;;;;37.15;13.20;;;7.80;87.00;;;;;;5055868;28;20082;-76
2022/02/28 09:11:28;;;;;;;30.25;12.85;;;7.90;86.40;;;;;;5055639;28;20474;-76
2022/02/28 09:13:54;;;;;;;49.83;18.60;;;8.00;86.40;;;;;;5051697;28;20107;-77
2022/02/28 09:16:21;;;;;;;35.45;14.70;;;8.20;86.20;;;;;;5035861;28;20083;-76
2022/02/28 09:18:47;;;;;;;30.98;14.25;;;8.40;85.90;;;;;;5048851;28;20027;-76
2022/02/28 09:21:12;;;;;;;36.15;13.68;;;8.40;85.60;;;;;;5034450;28;20874;-77
2022/02/28 09:23:38;;;;;;;37.33;14.15;;;8.50;85.50;;;;;;5046648;28;20086;-77
2022/02/28 09:26:04;;;;;;;50.72;18.38;;;8.60;85.80;;;;;;5055439;28;20025;-77
2022/02/28 09:28:30;;;;;;;42.95;15.85;;;8.60;85.60;;;;;;5049620;28;20029;-77
2022/02/28 09:30:56;;;;;;;52.30;17.98;;;8.70;85.80;;;;;;5035646;28;20083;-77
2022/02/28 09:33:21;;;;;;;33.58;12.23;;;8.80;85.80;;;;;;5035003;28;20763;-77
2022/02/28 09:35:48;;;;;;;29.83;12.00;;;8.80;85.80;;;;;;5050510;28;20029;-77
2022/02/28 09:38:15;;;;;;;29.65;12.75;;;8.90;86.30;;;;;;5055089;28;20036;-77
2022/02/28 09:40:43;;;;;;;27.55;10.80;;;8.90;85.90;;;;;;5055157;28;20025;-77
2022/02/28 09:43:10;;;;;;;26.73;10.25;;;9.00;86.00;;;;;;5036371;28;20030;-77
2022/02/28 09:45:36;;;;;;;27.60;9.75;;;9.10;86.00;;;;;;5035422;28;20017;-76
2022/02/28 09:48:03;;;;;;;28.33;12.25;;;9.20;85.60;;;;;;5033978;28;20032;-76
2022/02/28 09:50:29;;;;;;;21.15;10.02;;;9.30;86.00;;;;;;5048173;28;20025;-76
2022/02/28 09:52:55;;;;;;;26.58;9.57;;;9.40;85.20;;;;;;5051661;28;20103;-77
2022/02/28 09:55:20;;;;;;;25.23;9.80;;;9.40;85.50;;;;;;5035048;28;20026;-77
2022/02/28 09:57:50;;;;;;;25.65;10.63;;;9.40;85.40;;;;;;5035142;28;20029;-77
2022/02/28 10:00:23;;;;;;;21.55;9.32;;;9.50;85.50;;;;;;5034882;28;20021;-77
2022/02/28 10:02:55;;;;;;;31.42;10.10;;;9.60;85.50;;;;;;5033641;28;20530;-77
2022/02/28 10:05:21;;;;;;;28.13;10.82;;;9.70;85.10;;;;;;5034709;28;20022;-77
2022/02/28 10:07:54;;;;;;;26.52;10.75;;;9.70;84.60;;;;;;5035265;28;20025;-77
2022/02/28 10:10:21;;;;;;;25.88;10.10;;;9.70;84.80;;;;;;5033286;28;20029;-77
2022/02/28 10:12:48;;;;;;;29.13;10.90;;;9.70;84.80;;;;;;5034993;28;20029;-77
2022/02/28 10:15:18;;;;;;;27.70;11.50;;;9.70;85.00;;;;;;5034803;28;20053;-77
2022/02/28 10:17:54;;;;;;;29.70;11.70;;;9.70;84.60;;;;;;5034654;28;20442;-76
2022/02/28 10:20:35;;;;;;;36.97;12.23;;;9.70;84.40;;;;;;5073643;28;20109;-77
2022/02/28 10:23:02;;;;;;;;;;;9.80;84.20;;;;;;5067448;28;20083;-77
2022/02/28 10:25:41;;;;;;;29.73;10.15;;;9.80;84.20;;;;;;5036277;28;19923;-77
2022/02/28 10:28:19;;;;;;;28.30;12.18;;;10.00;84.20;;;;;;5034921;28;20014;-77
2022/02/28 10:31:05;;;;;;;31.42;13.60;;;9.90;83.70;;;;;;5034619;28;20038;-77
2022/02/28 10:33:36;;;;;;;34.00;13.32;;;10.10;84.00;;;;;;5035028;28;20425;-76
2022/02/28 10:36:13;;;;;;;35.22;14.35;;;10.20;83.50;;;;;;5034460;28;20107;-78
2022/02/28 10:39:00;;;;;;;35.20;14.40;;;10.30;83.80;;;;;;5049636;28;20030;-78
2022/02/28 10:41:29;;;;;;;28.88;13.27;;;10.50;83.40;;;;;;5034316;28;20619;-77
2022/02/28 10:43:58;;;;;;;33.33;14.88;;;10.50;82.50;;;;;;5035293;28;20025;-77
2022/02/28 10:46:29;;;;;;;39.33;16.02;;;10.50;82.60;;;;;;5053041;28;20482;-77
2022/02/28 10:49:01;;;;;;;34.38;15.15;;;10.70;83.20;;;;;;5045344;28;20032;-76
2022/02/28 10:51:28;;;;;;;34.78;16.20;;;10.70;82.30;;;;;;5034497;28;20021;-77
2022/02/28 10:54:20;;;;;;;35.05;15.38;;;10.70;82.40;;;;;;5034306;28;20026;-76
2022/02/28 10:56:54;;;;;;;31.55;15.80;;;10.80;82.30;;;;;;5031309;28;20040;-76
2022/02/28 10:59:22;;;;;;;28.02;14.13;;;10.80;81.80;;;;;;5043793;28;20475;-77
2022/02/28 11:01:49;;;;;;;23.95;11.57;;;10.90;82.20;;;;;;5036313;28;20036;-76
2022/02/28 11:04:15;;;;;;;27.23;12.93;;;10.80;82.00;;;;;;5036789;28;20063;-77
2022/02/28 11:06:46;;;;;;;26.90;12.38;;;10.80;82.30;;;;;;5038073;28;20380;-77
2022/02/28 11:09:11;;;;;;;25.73;12.68;;;10.80;82.60;;;;;;5038395;28;20460;-77
2022/02/28 11:11:37;;;;;;;25.92;11.98;;;11.00;82.50;;;;;;5037669;28;20060;-77
2022/02/28 11:14:03;;;;;;;26.23;12.60;;;11.00;82.20;;;;;;5038049;28;20045;-76
2022/02/28 11:16:30;;;;;;;18.55;10.60;;;11.00;82.60;;;;;;5038054;28;20084;-77
2022/02/28 11:18:56;;;;;;;18.48;10.63;;;11.20;82.30;;;;;;5043672;28;20075;-77
2022/02/28 11:21:22;;;;;;;18.65;10.93;;;11.20;82.40;;;;;;5037786;28;20033;-76
2022/02/28 11:23:48;;;;;;;29.07;12.87;;;11.30;82.50;;;;;;5056536;28;20047;-79
2022/02/28 11:26:15;;;;;;;29.10;12.48;;;11.40;82.30;;;;;;5056611;28;20506;-76
2022/02/28 11:28:41;;;;;;;19.67;10.68;;;11.20;82.40;;;;;;5057551;28;20033;-76
2022/02/28 11:31:12;;;;;;;24.10;11.20;;;11.30;82.40;;;;;;5047064;28;20022;-77
2022/02/28 11:33:48;;;;;;;25.45;11.70;;;11.30;83.10;;;;;;5037967;28;20116;-76
2022/02/28 11:36:14;;;;;;;24.30;12.95;;;11.50;83.00;;;;;;5037983;28;20441;-76
2022/02/28 11:38:42;;;;;;;23.17;10.73;;;11.60;82.40;;;;;;5037825;28;20021;-76
2022/02/28 11:41:09;;;;;;;18.88;9.75;;;11.80;82.20;;;;;;5057466;28;20399;-76
2022/02/28 11:43:37;;;;;;;20.05;9.98;;;12.00;81.30;;;;;;5057480;28;20104;-76
2022/02/28 11:46:05;;;;;;;20.20;9.43;;;12.30;80.70;;;;;;5049682;28;20033;-76
2022/02/28 11:48:34;;;;;;;16.27;8.65;;;12.60;79.80;;;;;;5037481;28;20030;-76
2022/02/28 11:51:10;;;;;;;14.77;8.82;;;12.40;79.90;;;;;;5037400;28;20075;-76
2022/02/28 11:53:49;;;;;;;10.77;7.03;;;12.50;80.00;;;;;;5037365;28;20040;-75
2022/02/28 11:56:18;;;;;;;10.68;6.68;;;12.80;79.40;;;;;;5052751;28;20071;-75
2022/02/28 11:58:48;;;;;;;10.68;5.93;;;12.90;77.60;;;;;;5046758;28;20025;-77
2022/02/28 12:01:14;;;;;;;;;;;12.90;77.60;;;;;;5036214;28;20036;-76
2022/02/28 12:04:11;;;;;;;11.35;6.53;;;12.70;78.00;;;;;;5037189;28;20014;-75
2022/02/28 12:07:07;;;;;;;14.13;6.82;;;12.60;78.30;;;;;;5036892;28;20032;-75
2022/02/28 12:09:33;;;;;;;10.98;6.65;;;12.70;78.60;;;;;;5037195;28;20104;-76
2022/02/28 12:12:21;;;;;;;14.80;6.07;;;13.00;78.90;;;;;;5035174;28;20056;-76
2022/02/28 12:14:55;;;;;;;13.43;5.65;;;13.30;77.40;;;;;;5035309;28;20084;-76
2022/02/28 12:17:37;;;;;;;10.45;6.72;;;13.50;77.00;;;;;;5036719;28;20105;-76
2022/02/28 12:20:16;;;;;;;15.32;5.57;;;13.60;76.80;;;;;;5058897;28;20521;-77
2022/02/28 12:23:08;;;;;;;10.27;5.57;;;13.60;75.90;;;;;;5039937;28;20027;-76
2022/02/28 12:25:39;;;;;;;12.15;5.80;;;13.50;76.30;;;;;;5056460;28;20029;-76
2022/02/28 12:28:36;;;;;;;11.75;5.78;;;13.70;76.10;;;;;;5040969;28;20028;-76
2022/02/28 12:31:37;;;;;;;13.18;5.32;;;13.70;75.50;;;;;;5035049;28;20152;-76
2022/02/28 12:34:10;;;;;;;10.30;4.82;;;14.00;75.30;;;;;;5034490;28;20531;-76
2022/02/28 12:36:37;;;;;;;10.05;4.63;;;14.10;73.10;;;;;;5039095;28;20024;-76
2022/02/28 12:39:14;;;;;;;7.35;4.30;;;14.00;73.20;;;;;;5055988;28;20021;-74
2022/02/28 12:41:45;;;;;;;6.15;3.85;;;14.20;73.10;;;;;;5039498;28;20034;-73
2022/02/28 12:44:13;;;;;;;9.88;4.28;;;14.30;71.80;;;;;;5036479;28;20036;-73
2022/02/28 12:46:45;;;;;;;7.90;3.80;;;14.30;71.60;;;;;;5036106;28;20100;-73
2022/02/28 12:49:13;;;;;;;8.77;4.25;;;14.40;71.40;;;;;;5044036;28;20029;-73
2022/02/28 12:51:40;;;;;;;7.60;3.83;;;14.40;71.70;;;;;;5056112;28;20029;-74
2022/02/28 12:54:09;;;;;;;11.35;3.78;;;14.60;72.10;;;;;;5044644;28;20495;-74
2022/02/28 12:56:46;;;;;;;10.60;4.43;;;14.70;70.40;;;;;;5035907;28;20052;-74
2022/02/28 12:59:13;;;;;;;10.65;3.80;;;14.70;71.20;;;;;;5035653;28;20022;-74
2022/02/28 13:01:39;;;;;;;8.18;3.58;;;14.50;70.90;;;;;;5055067;28;20021;-74
2022/02/28 13:04:07;;;;;;;10.50;3.28;;;14.40;71.10;;;;;;5055639;28;20021;-74
2022/02/28 13:06:41;;;;;;;9.98;3.63;;;14.50;71.30;;;;;;5056132;28;20459;-73